sensor_id;sensor_type;location;lat;lon;timestamp;P1;durP1;ratioP1;P2;durP2;ratioP2
5923;SDS011;2987;50.884;14.818;2024-03-29T00:01:25;3.73;;;3.10;;
5923;SDS011;2987;50.884;14.818;2024-03-29T00:03:51;3.93;;;3.20;;
5923;SDS011;2987;50.884;14.818;2024-03-29T00:06:20;4.40;;;3.30;;
5923;SDS011;2987;50.884;14.818;2024-03-29T00:08:46;3.07;;;2.77;;
5923;SDS011;2987;50.884;14.818;2024-03-29T00:11:12;3.43;;;3.13;;
5923;SDS011;2987;50.884;14.818;2024-03-29T00:13:38;4.20;;;2.93;;
5923;SDS011;2987;50.884;14.818;2024-03-29T00:16:05;5.83;;;3.30;;
5923;SDS011;2987;50.884;14.818;2024-03-29T00:18:32;4.33;;;3.80;;
5923;SDS011;2987;50.884;14.818;2024-03-29T00:20:58;3.87;;;3.27;;
5923;SDS011;2987;50.884;14.818;2024-03-29T00:23:24;3.07;;;2.87;;
5923;SDS011;2987;50.884;14.818;2024-03-29T00:25:50;5.53;;;3.10;;
5923;SDS011;2987;50.884;14.818;2024-03-29T00:28:16;3.10;;;2.80;;
5923;SDS011;2987;50.884;14.818;2024-03-29T00:30:42;3.00;;;2.80;;
5923;SDS011;2987;50.884;14.818;2024-03-29T00:33:09;3.23;;;3.03;;
5923;SDS011;2987;50.884;14.818;2024-03-29T00:35:35;2.90;;;2.70;;
5923;SDS011;2987;50.884;14.818;2024-03-29T00:38:01;4.60;;;3.10;;
5923;SDS011;2987;50.884;14.818;2024-03-29T00:40:27;3.60;;;3.27;;
5923;SDS011;2987;50.884;14.818;2024-03-29T00:42:53;4.70;;;2.80;;
5923;SDS011;2987;50.884;14.818;2024-03-29T00:45:19;3.60;;;3.30;;
5923;SDS011;2987;50.884;14.818;2024-03-29T00:47:45;3.70;;;2.97;;
5923;SDS011;2987;50.884;14.818;2024-03-29T00:50:11;3.33;;;3.00;;
5923;SDS011;2987;50.884;14.818;2024-03-29T00:52:37;4.60;;;3.37;;
5923;SDS011;2987;50.884;14.818;2024-03-29T00:55:03;4.00;;;3.20;;
5923;SDS011;2987;50.884;14.818;2024-03-29T00:57:30;4.97;;;3.10;;
5923;SDS011;2987;50.884;14.818;2024-03-29T00:59:56;3.00;;;2.80;;
5923;SDS011;2987;50.884;14.818;2024-03-29T01:02:22;3.47;;;3.07;;
5923;SDS011;2987;50.884;14.818;2024-03-29T01:04:49;4.97;;;3.03;;
5923;SDS011;2987;50.884;14.818;2024-03-29T01:07:16;3.00;;;2.80;;
5923;SDS011;2987;50.884;14.818;2024-03-29T01:09:43;3.60;;;3.30;;
5923;SDS011;2987;50.884;14.818;2024-03-29T01:12:09;3.30;;;3.03;;
5923;SDS011;2987;50.884;14.818;2024-03-29T01:14:35;4.60;;;3.17;;
5923;SDS011;2987;50.884;14.818;2024-03-29T01:17:01;5.10;;;3.30;;
5923;SDS011;2987;50.884;14.818;2024-03-29T01:19:28;4.73;;;3.03;;
5923;SDS011;2987;50.884;14.818;2024-03-29T01:21:54;3.50;;;3.20;;
5923;SDS011;2987;50.884;14.818;2024-03-29T01:24:20;4.73;;;3.30;;
5923;SDS011;2987;50.884;14.818;2024-03-29T01:26:46;4.60;;;2.97;;
5923;SDS011;2987;50.884;14.818;2024-03-29T01:29:12;4.40;;;3.03;;
5923;SDS011;2987;50.884;14.818;2024-03-29T01:31:38;3.60;;;3.00;;
5923;SDS011;2987;50.884;14.818;2024-03-29T01:34:04;4.23;;;3.03;;
5923;SDS011;2987;50.884;14.818;2024-03-29T01:36:30;3.70;;;2.80;;
5923;SDS011;2987;50.884;14.818;2024-03-29T01:38:56;3.40;;;3.10;;
5923;SDS011;2987;50.884;14.818;2024-03-29T01:41:24;3.87;;;3.30;;
5923;SDS011;2987;50.884;14.818;2024-03-29T01:43:53;3.40;;;3.10;;
5923;SDS011;2987;50.884;14.818;2024-03-29T01:46:20;3.97;;;3.00;;
5923;SDS011;2987;50.884;14.818;2024-03-29T01:48:49;3.50;;;3.20;;
5923;SDS011;2987;50.884;14.818;2024-03-29T01:51:19;2.80;;;2.57;;
5923;SDS011;2987;50.884;14.818;2024-03-29T01:53:47;3.53;;;2.83;;
5923;SDS011;2987;50.884;14.818;2024-03-29T01:56:14;3.10;;;2.70;;
5923;SDS011;2987;50.884;14.818;2024-03-29T01:58:41;6.53;;;3.23;;
5923;SDS011;2987;50.884;14.818;2024-03-29T02:01:08;3.83;;;3.20;;
5923;SDS011;2987;50.884;14.818;2024-03-29T02:03:35;3.57;;;3.27;;
5923;SDS011;2987;50.884;14.818;2024-03-29T02:06:02;3.47;;;2.93;;
5923;SDS011;2987;50.884;14.818;2024-03-29T02:08:29;3.67;;;2.90;;
5923;SDS011;2987;50.884;14.818;2024-03-29T02:10:55;3.57;;;2.77;;
5923;SDS011;2987;50.884;14.818;2024-03-29T02:13:23;10.37;;;3.00;;
5923;SDS011;2987;50.884;14.818;2024-03-29T02:15:49;3.30;;;2.70;;
5923;SDS011;2987;50.884;14.818;2024-03-29T02:18:16;4.43;;;2.93;;
5923;SDS011;2987;50.884;14.818;2024-03-29T02:20:42;2.93;;;2.63;;
5923;SDS011;2987;50.884;14.818;2024-03-29T02:25:35;4.53;;;2.90;;
5923;SDS011;2987;50.884;14.818;2024-03-29T02:28:02;3.67;;;2.67;;
5923;SDS011;2987;50.884;14.818;2024-03-29T02:30:29;3.33;;;3.03;;
5923;SDS011;2987;50.884;14.818;2024-03-29T02:32:58;3.57;;;2.77;;
5923;SDS011;2987;50.884;14.818;2024-03-29T02:35:25;3.33;;;2.63;;
5923;SDS011;2987;50.884;14.818;2024-03-29T02:37:51;2.63;;;2.43;;
5923;SDS011;2987;50.884;14.818;2024-03-29T02:40:21;4.63;;;3.03;;
5923;SDS011;2987;50.884;14.818;2024-03-29T02:42:47;3.20;;;2.60;;
5923;SDS011;2987;50.884;14.818;2024-03-29T02:45:14;2.60;;;2.40;;
5923;SDS011;2987;50.884;14.818;2024-03-29T02:47:41;2.87;;;2.53;;
5923;SDS011;2987;50.884;14.818;2024-03-29T02:50:08;4.47;;;2.80;;
5923;SDS011;2987;50.884;14.818;2024-03-29T02:52:35;2.90;;;2.43;;
5923;SDS011;2987;50.884;14.818;2024-03-29T02:55:02;2.73;;;2.40;;
5923;SDS011;2987;50.884;14.818;2024-03-29T02:57:28;2.53;;;2.33;;
5923;SDS011;2987;50.884;14.818;2024-03-29T02:59:54;3.87;;;2.60;;
5923;SDS011;2987;50.884;14.818;2024-03-29T03:02:20;3.87;;;2.70;;
5923;SDS011;2987;50.884;14.818;2024-03-29T03:04:46;3.40;;;2.70;;
5923;SDS011;2987;50.884;14.818;2024-03-29T03:07:13;3.07;;;2.77;;
5923;SDS011;2987;50.884;14.818;2024-03-29T03:09:57;2.87;;;2.50;;
5923;SDS011;2987;50.884;14.818;2024-03-29T03:12:42;3.70;;;2.77;;
5923;SDS011;2987;50.884;14.818;2024-03-29T03:15:09;2.83;;;2.57;;
5923;SDS011;2987;50.884;14.818;2024-03-29T03:17:35;2.80;;;2.60;;
5923;SDS011;2987;50.884;14.818;2024-03-29T03:20:01;5.40;;;2.73;;
5923;SDS011;2987;50.884;14.818;2024-03-29T03:22:29;3.40;;;2.70;;
5923;SDS011;2987;50.884;14.818;2024-03-29T03:24:55;2.97;;;2.67;;
5923;SDS011;2987;50.884;14.818;2024-03-29T03:27:21;3.50;;;2.73;;
5923;SDS011;2987;50.884;14.818;2024-03-29T03:29:49;3.53;;;2.60;;
5923;SDS011;2987;50.884;14.818;2024-03-29T03:32:14;6.43;;;2.90;;
5923;SDS011;2987;50.884;14.818;2024-03-29T03:34:40;3.93;;;2.73;;
5923;SDS011;2987;50.884;14.818;2024-03-29T03:37:06;4.00;;;2.60;;
5923;SDS011;2987;50.884;14.818;2024-03-29T03:39:32;2.70;;;2.50;;
5923;SDS011;2987;50.884;14.818;2024-03-29T03:41:58;2.83;;;2.37;;
5923;SDS011;2987;50.884;14.818;2024-03-29T03:44:24;4.67;;;2.80;;
5923;SDS011;2987;50.884;14.818;2024-03-29T03:46:50;4.80;;;2.80;;
5923;SDS011;2987;50.884;14.818;2024-03-29T03:49:17;3.77;;;2.70;;
5923;SDS011;2987;50.884;14.818;2024-03-29T03:51:43;4.67;;;2.53;;
5923;SDS011;2987;50.884;14.818;2024-03-29T03:54:09;5.13;;;2.97;;
5923;SDS011;2987;50.884;14.818;2024-03-29T03:56:35;6.07;;;3.00;;
5923;SDS011;2987;50.884;14.818;2024-03-29T03:59:01;6.60;;;2.93;;
5923;SDS011;2987;50.884;14.818;2024-03-29T04:01:27;3.33;;;3.00;;
5923;SDS011;2987;50.884;14.818;2024-03-29T04:03:53;6.43;;;3.37;;
5923;SDS011;2987;50.884;14.818;2024-03-29T04:06:19;4.47;;;3.27;;
5923;SDS011;2987;50.884;14.818;2024-03-29T04:08:47;3.37;;;2.70;;
5923;SDS011;2987;50.884;14.818;2024-03-29T04:11:13;3.30;;;3.00;;
5923;SDS011;2987;50.884;14.818;2024-03-29T04:13:42;3.27;;;2.97;;
5923;SDS011;2987;50.884;14.818;2024-03-29T04:16:08;3.17;;;2.43;;
5923;SDS011;2987;50.884;14.818;2024-03-29T04:18:34;3.80;;;2.90;;
5923;SDS011;2987;50.884;14.818;2024-03-29T04:21:01;3.50;;;3.00;;
5923;SDS011;2987;50.884;14.818;2024-03-29T04:23:27;5.53;;;3.07;;
5923;SDS011;2987;50.884;14.818;2024-03-29T04:25:54;3.93;;;2.87;;
5923;SDS011;2987;50.884;14.818;2024-03-29T04:28:24;4.90;;;2.80;;
5923;SDS011;2987;50.884;14.818;2024-03-29T04:30:54;6.77;;;3.00;;
5923;SDS011;2987;50.884;14.818;2024-03-29T04:33:21;3.23;;;2.90;;
5923;SDS011;2987;50.884;14.818;2024-03-29T04:35:52;3.03;;;2.73;;
5923;SDS011;2987;50.884;14.818;2024-03-29T04:38:22;3.10;;;2.60;;
5923;SDS011;2987;50.884;14.818;2024-03-29T04:40:49;3.33;;;2.83;;
5923;SDS011;2987;50.884;14.818;2024-03-29T04:43:16;4.37;;;2.80;;
5923;SDS011;2987;50.884;14.818;2024-03-29T04:45:43;3.83;;;2.60;;
5923;SDS011;2987;50.884;14.818;2024-03-29T04:48:10;3.07;;;2.47;;
5923;SDS011;2987;50.884;14.818;2024-03-29T04:50:37;4.73;;;2.57;;
5923;SDS011;2987;50.884;14.818;2024-03-29T04:53:03;3.00;;;2.70;;
5923;SDS011;2987;50.884;14.818;2024-03-29T04:55:29;5.00;;;2.43;;
5923;SDS011;2987;50.884;14.818;2024-03-29T04:57:55;2.83;;;2.47;;
5923;SDS011;2987;50.884;14.818;2024-03-29T05:00:21;3.20;;;2.90;;
5923;SDS011;2987;50.884;14.818;2024-03-29T05:02:47;2.63;;;2.43;;
5923;SDS011;2987;50.884;14.818;2024-03-29T05:05:13;4.83;;;2.57;;
5923;SDS011;2987;50.884;14.818;2024-03-29T05:07:39;5.00;;;2.73;;
5923;SDS011;2987;50.884;14.818;2024-03-29T05:10:05;2.23;;;2.13;;
5923;SDS011;2987;50.884;14.818;2024-03-29T05:12:33;2.37;;;2.17;;
5923;SDS011;2987;50.884;14.818;2024-03-29T05:14:59;3.17;;;2.73;;
5923;SDS011;2987;50.884;14.818;2024-03-29T05:17:25;3.47;;;3.10;;
5923;SDS011;2987;50.884;14.818;2024-03-29T05:19:53;2.87;;;2.37;;
5923;SDS011;2987;50.884;14.818;2024-03-29T05:22:19;3.00;;;2.63;;
5923;SDS011;2987;50.884;14.818;2024-03-29T05:24:45;3.90;;;2.40;;
5923;SDS011;2987;50.884;14.818;2024-03-29T05:27:11;3.87;;;2.57;;
5923;SDS011;2987;50.884;14.818;2024-03-29T05:29:38;2.13;;;2.03;;
5923;SDS011;2987;50.884;14.818;2024-03-29T05:32:04;3.67;;;2.33;;
5923;SDS011;2987;50.884;14.818;2024-03-29T05:34:31;3.70;;;2.43;;
5923;SDS011;2987;50.884;14.818;2024-03-29T05:36:57;3.33;;;2.40;;
5923;SDS011;2987;50.884;14.818;2024-03-29T05:39:23;4.20;;;2.17;;
5923;SDS011;2987;50.884;14.818;2024-03-29T05:41:49;2.57;;;2.37;;
5923;SDS011;2987;50.884;14.818;2024-03-29T05:44:15;3.37;;;2.40;;
5923;SDS011;2987;50.884;14.818;2024-03-29T05:46:41;2.57;;;2.10;;
5923;SDS011;2987;50.884;14.818;2024-03-29T05:49:07;5.17;;;2.20;;
5923;SDS011;2987;50.884;14.818;2024-03-29T05:51:33;4.07;;;2.20;;
5923;SDS011;2987;50.884;14.818;2024-03-29T05:53:59;3.57;;;2.70;;
5923;SDS011;2987;50.884;14.818;2024-03-29T05:56:25;2.50;;;2.10;;
5923;SDS011;2987;50.884;14.818;2024-03-29T05:58:51;6.03;;;2.30;;
5923;SDS011;2987;50.884;14.818;2024-03-29T06:01:17;4.63;;;2.40;;
5923;SDS011;2987;50.884;14.818;2024-03-29T06:03:44;2.47;;;2.00;;
5923;SDS011;2987;50.884;14.818;2024-03-29T06:06:09;3.70;;;2.43;;
5923;SDS011;2987;50.884;14.818;2024-03-29T06:08:43;2.33;;;2.13;;
5923;SDS011;2987;50.884;14.818;2024-03-29T06:11:09;2.93;;;2.10;;
5923;SDS011;2987;50.884;14.818;2024-03-29T06:13:35;2.37;;;2.10;;
5923;SDS011;2987;50.884;14.818;2024-03-29T06:16:20;2.30;;;2.10;;
5923;SDS011;2987;50.884;14.818;2024-03-29T06:19:05;2.93;;;1.73;;
5923;SDS011;2987;50.884;14.818;2024-03-29T06:21:31;2.50;;;2.00;;
5923;SDS011;2987;50.884;14.818;2024-03-29T06:24:10;2.10;;;2.00;;
5923;SDS011;2987;50.884;14.818;2024-03-29T06:26:40;2.27;;;2.07;;
5923;SDS011;2987;50.884;14.818;2024-03-29T06:29:07;2.47;;;1.67;;
5923;SDS011;2987;50.884;14.818;2024-03-29T06:31:35;1.93;;;1.83;;
5923;SDS011;2987;50.884;14.818;2024-03-29T06:34:01;3.30;;;2.00;;
5923;SDS011;2987;50.884;14.818;2024-03-29T06:36:27;2.57;;;2.10;;
5923;SDS011;2987;50.884;14.818;2024-03-29T06:38:55;2.43;;;2.00;;
5923;SDS011;2987;50.884;14.818;2024-03-29T06:41:21;2.97;;;2.20;;
5923;SDS011;2987;50.884;14.818;2024-03-29T06:43:47;2.30;;;2.10;;
5923;SDS011;2987;50.884;14.818;2024-03-29T06:46:13;2.93;;;2.20;;
5923;SDS011;2987;50.884;14.818;2024-03-29T06:48:40;3.33;;;2.67;;
5923;SDS011;2987;50.884;14.818;2024-03-29T06:51:06;2.40;;;2.20;;
5923;SDS011;2987;50.884;14.818;2024-03-29T06:53:32;2.10;;;1.90;;
5923;SDS011;2987;50.884;14.818;2024-03-29T06:56:00;2.03;;;1.80;;
5923;SDS011;2987;50.884;14.818;2024-03-29T06:58:29;2.00;;;1.80;;
5923;SDS011;2987;50.884;14.818;2024-03-29T07:00:55;2.40;;;1.97;;
5923;SDS011;2987;50.884;14.818;2024-03-29T07:03:21;3.47;;;1.70;;
5923;SDS011;2987;50.884;14.818;2024-03-29T07:05:47;2.63;;;2.10;;
5923;SDS011;2987;50.884;14.818;2024-03-29T07:08:13;2.23;;;2.03;;
5923;SDS011;2987;50.884;14.818;2024-03-29T07:10:39;2.43;;;1.73;;
5923;SDS011;2987;50.884;14.818;2024-03-29T07:13:06;2.17;;;2.00;;
5923;SDS011;2987;50.884;14.818;2024-03-29T07:15:33;2.23;;;2.00;;
5923;SDS011;2987;50.884;14.818;2024-03-29T07:17:59;2.00;;;1.90;;
5923;SDS011;2987;50.884;14.818;2024-03-29T07:20:28;2.67;;;2.40;;
5923;SDS011;2987;50.884;14.818;2024-03-29T07:22:55;2.30;;;2.03;;
5923;SDS011;2987;50.884;14.818;2024-03-29T07:25:21;1.80;;;1.70;;
5923;SDS011;2987;50.884;14.818;2024-03-29T07:27:47;2.13;;;2.00;;
5923;SDS011;2987;50.884;14.818;2024-03-29T07:30:15;2.40;;;2.20;;
5923;SDS011;2987;50.884;14.818;2024-03-29T07:32:42;2.43;;;2.23;;
5923;SDS011;2987;50.884;14.818;2024-03-29T07:35:08;2.23;;;1.90;;
5923;SDS011;2987;50.884;14.818;2024-03-29T07:37:34;3.00;;;2.00;;
5923;SDS011;2987;50.884;14.818;2024-03-29T07:40:00;2.67;;;2.07;;
5923;SDS011;2987;50.884;14.818;2024-03-29T07:42:26;2.20;;;2.00;;
5923;SDS011;2987;50.884;14.818;2024-03-29T07:44:52;2.20;;;1.87;;
5923;SDS011;2987;50.884;14.818;2024-03-29T07:47:18;2.60;;;2.07;;
5923;SDS011;2987;50.884;14.818;2024-03-29T07:49:44;2.40;;;2.10;;
5923;SDS011;2987;50.884;14.818;2024-03-29T07:52:11;2.17;;;1.97;;
5923;SDS011;2987;50.884;14.818;2024-03-29T07:54:37;2.83;;;2.30;;
5923;SDS011;2987;50.884;14.818;2024-03-29T07:57:04;4.87;;;1.97;;
5923;SDS011;2987;50.884;14.818;2024-03-29T07:59:33;3.53;;;2.00;;
5923;SDS011;2987;50.884;14.818;2024-03-29T08:01:59;1.87;;;1.70;;
5923;SDS011;2987;50.884;14.818;2024-03-29T08:04:27;2.80;;;1.93;;
5923;SDS011;2987;50.884;14.818;2024-03-29T08:06:53;2.73;;;1.83;;
5923;SDS011;2987;50.884;14.818;2024-03-29T08:09:20;3.30;;;1.97;;
5923;SDS011;2987;50.884;14.818;2024-03-29T08:11:46;2.03;;;1.70;;
5923;SDS011;2987;50.884;14.818;2024-03-29T08:14:12;3.33;;;1.80;;
5923;SDS011;2987;50.884;14.818;2024-03-29T08:16:38;2.10;;;1.87;;
5923;SDS011;2987;50.884;14.818;2024-03-29T08:19:04;2.40;;;1.63;;
5923;SDS011;2987;50.884;14.818;2024-03-29T08:21:30;2.00;;;1.60;;
5923;SDS011;2987;50.884;14.818;2024-03-29T08:23:56;1.67;;;1.57;;
5923;SDS011;2987;50.884;14.818;2024-03-29T08:26:23;3.47;;;1.77;;
5923;SDS011;2987;50.884;14.818;2024-03-29T08:28:49;3.00;;;1.63;;
5923;SDS011;2987;50.884;14.818;2024-03-29T08:31:15;2.83;;;1.90;;
5923;SDS011;2987;50.884;14.818;2024-03-29T08:33:42;2.03;;;1.80;;
5923;SDS011;2987;50.884;14.818;2024-03-29T08:36:08;2.03;;;1.80;;
5923;SDS011;2987;50.884;14.818;2024-03-29T08:38:36;1.90;;;1.67;;
5923;SDS011;2987;50.884;14.818;2024-03-29T08:41:09;2.33;;;1.87;;
5923;SDS011;2987;50.884;14.818;2024-03-29T08:43:35;2.80;;;1.70;;
5923;SDS011;2987;50.884;14.818;2024-03-29T08:46:01;2.10;;;1.47;;
5923;SDS011;2987;50.884;14.818;2024-03-29T08:48:27;1.83;;;1.50;;
5923;SDS011;2987;50.884;14.818;2024-03-29T08:50:53;2.10;;;1.70;;
5923;SDS011;2987;50.884;14.818;2024-03-29T08:53:20;2.07;;;1.50;;
5923;SDS011;2987;50.884;14.818;2024-03-29T08:55:47;2.30;;;1.90;;
5923;SDS011;2987;50.884;14.818;2024-03-29T08:58:16;2.20;;;1.70;;
5923;SDS011;2987;50.884;14.818;2024-03-29T09:00:51;1.70;;;1.50;;
5923;SDS011;2987;50.884;14.818;2024-03-29T09:03:21;2.00;;;1.70;;
5923;SDS011;2987;50.884;14.818;2024-03-29T09:05:48;2.03;;;1.37;;
5923;SDS011;2987;50.884;14.818;2024-03-29T09:08:16;1.67;;;1.50;;
5923;SDS011;2987;50.884;14.818;2024-03-29T09:10:42;1.80;;;1.60;;
5923;SDS011;2987;50.884;14.818;2024-03-29T09:13:11;1.53;;;1.27;;
5923;SDS011;2987;50.884;14.818;2024-03-29T09:15:38;1.30;;;1.20;;
5923;SDS011;2987;50.884;14.818;2024-03-29T09:18:04;2.57;;;1.60;;
5923;SDS011;2987;50.884;14.818;2024-03-29T09:20:44;1.60;;;1.37;;
5923;SDS011;2987;50.884;14.818;2024-03-29T09:23:10;1.77;;;1.37;;
5923;SDS011;2987;50.884;14.818;2024-03-29T09:25:41;2.50;;;1.47;;
5923;SDS011;2987;50.884;14.818;2024-03-29T09:28:07;2.90;;;1.47;;
5923;SDS011;2987;50.884;14.818;2024-03-29T09:30:35;1.37;;;1.30;;
5923;SDS011;2987;50.884;14.818;2024-03-29T09:33:01;2.83;;;1.50;;
5923;SDS011;2987;50.884;14.818;2024-03-29T09:35:32;1.90;;;1.30;;
5923;SDS011;2987;50.884;14.818;2024-03-29T09:37:58;2.13;;;1.30;;
5923;SDS011;2987;50.884;14.818;2024-03-29T09:40:25;1.70;;;1.37;;
5923;SDS011;2987;50.884;14.818;2024-03-29T09:42:52;1.00;;;1.00;;
5923;SDS011;2987;50.884;14.818;2024-03-29T09:45:22;1.50;;;1.20;;
5923;SDS011;2987;50.884;14.818;2024-03-29T09:47:49;2.47;;;1.20;;
5923;SDS011;2987;50.884;14.818;2024-03-29T09:50:16;2.23;;;1.33;;
5923;SDS011;2987;50.884;14.818;2024-03-29T09:52:42;1.13;;;1.10;;
5923;SDS011;2987;50.884;14.818;2024-03-29T09:55:08;2.60;;;1.40;;
5923;SDS011;2987;50.884;14.818;2024-03-29T09:57:35;2.03;;;1.30;;
5923;SDS011;2987;50.884;14.818;2024-03-29T10:00:01;2.60;;;1.17;;
5923;SDS011;2987;50.884;14.818;2024-03-29T10:02:30;3.60;;;1.50;;
5923;SDS011;2987;50.884;14.818;2024-03-29T10:04:58;1.90;;;1.20;;
5923;SDS011;2987;50.884;14.818;2024-03-29T10:07:28;2.70;;;1.23;;
5923;SDS011;2987;50.884;14.818;2024-03-29T10:09:56;2.47;;;1.23;;
5923;SDS011;2987;50.884;14.818;2024-03-29T10:12:24;4.37;;;1.30;;
5923;SDS011;2987;50.884;14.818;2024-03-29T10:14:50;1.97;;;1.37;;
5923;SDS011;2987;50.884;14.818;2024-03-29T10:17:24;5.73;;;1.60;;
5923;SDS011;2987;50.884;14.818;2024-03-29T10:19:50;2.47;;;1.87;;
5923;SDS011;2987;50.884;14.818;2024-03-29T10:22:16;1.87;;;1.33;;
5923;SDS011;2987;50.884;14.818;2024-03-29T10:24:42;1.57;;;1.20;;
5923;SDS011;2987;50.884;14.818;2024-03-29T10:27:08;3.03;;;1.43;;
5923;SDS011;2987;50.884;14.818;2024-03-29T10:29:34;1.50;;;1.40;;
5923;SDS011;2987;50.884;14.818;2024-03-29T10:32:01;3.17;;;1.70;;
5923;SDS011;2987;50.884;14.818;2024-03-29T10:34:29;1.33;;;1.13;;
5923;SDS011;2987;50.884;14.818;2024-03-29T10:37:00;3.30;;;1.57;;
5923;SDS011;2987;50.884;14.818;2024-03-29T10:39:28;3.03;;;1.30;;
5923;SDS011;2987;50.884;14.818;2024-03-29T10:41:56;1.93;;;1.53;;
5923;SDS011;2987;50.884;14.818;2024-03-29T10:44:22;1.73;;;1.43;;
5923;SDS011;2987;50.884;14.818;2024-03-29T10:46:50;3.00;;;1.27;;
5923;SDS011;2987;50.884;14.818;2024-03-29T10:49:17;1.63;;;1.17;;
5923;SDS011;2987;50.884;14.818;2024-03-29T10:51:44;1.63;;;1.20;;
5923;SDS011;2987;50.884;14.818;2024-03-29T10:54:10;3.17;;;1.30;;
5923;SDS011;2987;50.884;14.818;2024-03-29T10:56:37;1.40;;;1.17;;
5923;SDS011;2987;50.884;14.818;2024-03-29T10:59:54;1.20;;;1.10;;
5923;SDS011;2987;50.884;14.818;2024-03-29T11:02:28;1.50;;;1.20;;
5923;SDS011;2987;50.884;14.818;2024-03-29T11:04:57;1.27;;;1.20;;
5923;SDS011;2987;50.884;14.818;2024-03-29T11:07:31;1.50;;;1.20;;
5923;SDS011;2987;50.884;14.818;2024-03-29T11:10:02;2.37;;;1.20;;
5923;SDS011;2987;50.884;14.818;2024-03-29T11:12:30;1.93;;;1.20;;
5923;SDS011;2987;50.884;14.818;2024-03-29T11:15:08;1.13;;;1.03;;
5923;SDS011;2987;50.884;14.818;2024-03-29T11:17:39;1.80;;;1.20;;
5923;SDS011;2987;50.884;14.818;2024-03-29T11:20:05;1.60;;;1.00;;
5923;SDS011;2987;50.884;14.818;2024-03-29T11:22:33;3.00;;;1.47;;
5923;SDS011;2987;50.884;14.818;2024-03-29T11:25:00;9.20;;;1.23;;
5923;SDS011;2987;50.884;14.818;2024-03-29T11:27:28;1.73;;;1.00;;
5923;SDS011;2987;50.884;14.818;2024-03-29T11:29:54;1.43;;;1.13;;
5923;SDS011;2987;50.884;14.818;2024-03-29T11:32:35;2.30;;;1.30;;
5923;SDS011;2987;50.884;14.818;2024-03-29T11:35:04;1.87;;;1.13;;
5923;SDS011;2987;50.884;14.818;2024-03-29T11:37:31;1.83;;;1.13;;
5923;SDS011;2987;50.884;14.818;2024-03-29T11:40:00;1.40;;;1.00;;
5923;SDS011;2987;50.884;14.818;2024-03-29T11:45:25;4.03;;;1.00;;
5923;SDS011;2987;50.884;14.818;2024-03-29T11:47:54;2.00;;;1.07;;
5923;SDS011;2987;50.884;14.818;2024-03-29T11:50:23;1.43;;;1.10;;
5923;SDS011;2987;50.884;14.818;2024-03-29T11:52:50;1.50;;;1.20;;
5923;SDS011;2987;50.884;14.818;2024-03-29T11:55:16;3.20;;;1.20;;
5923;SDS011;2987;50.884;14.818;2024-03-29T11:57:43;2.00;;;1.23;;
5923;SDS011;2987;50.884;14.818;2024-03-29T12:00:09;3.77;;;1.10;;
5923;SDS011;2987;50.884;14.818;2024-03-29T12:02:36;2.03;;;1.20;;
5923;SDS011;2987;50.884;14.818;2024-03-29T12:05:05;2.43;;;1.00;;
5923;SDS011;2987;50.884;14.818;2024-03-29T12:07:33;1.90;;;1.00;;
5923;SDS011;2987;50.884;14.818;2024-03-29T12:09:59;2.33;;;1.37;;
5923;SDS011;2987;50.884;14.818;2024-03-29T12:12:25;3.47;;;0.93;;
5923;SDS011;2987;50.884;14.818;2024-03-29T12:14:51;1.63;;;1.13;;
5923;SDS011;2987;50.884;14.818;2024-03-29T12:17:17;1.73;;;1.00;;
5923;SDS011;2987;50.884;14.818;2024-03-29T12:19:44;1.47;;;0.87;;
5923;SDS011;2987;50.884;14.818;2024-03-29T12:22:10;1.50;;;0.90;;
5923;SDS011;2987;50.884;14.818;2024-03-29T12:24:36;3.40;;;0.90;;
5923;SDS011;2987;50.884;14.818;2024-03-29T12:27:03;2.47;;;1.20;;
5923;SDS011;2987;50.884;14.818;2024-03-29T12:29:30;1.90;;;0.90;;
5923;SDS011;2987;50.884;14.818;2024-03-29T12:31:59;1.30;;;1.00;;
5923;SDS011;2987;50.884;14.818;2024-03-29T12:34:26;1.33;;;1.03;;
5923;SDS011;2987;50.884;14.818;2024-03-29T12:36:52;2.70;;;1.30;;
5923;SDS011;2987;50.884;14.818;2024-03-29T12:39:18;1.20;;;0.90;;
5923;SDS011;2987;50.884;14.818;2024-03-29T12:41:47;0.97;;;0.93;;
5923;SDS011;2987;50.884;14.818;2024-03-29T12:44:13;4.17;;;0.90;;
5923;SDS011;2987;50.884;14.818;2024-03-29T12:46:40;2.77;;;1.10;;
5923;SDS011;2987;50.884;14.818;2024-03-29T12:49:06;3.30;;;0.80;;
5923;SDS011;2987;50.884;14.818;2024-03-29T12:51:32;1.10;;;0.90;;
5923;SDS011;2987;50.884;14.818;2024-03-29T12:54:01;0.97;;;0.73;;
5923;SDS011;2987;50.884;14.818;2024-03-29T12:56:29;1.13;;;0.83;;
5923;SDS011;2987;50.884;14.818;2024-03-29T12:58:56;1.23;;;0.80;;
5923;SDS011;2987;50.884;14.818;2024-03-29T13:01:22;1.00;;;0.80;;
5923;SDS011;2987;50.884;14.818;2024-03-29T13:03:48;2.30;;;1.00;;
5923;SDS011;2987;50.884;14.818;2024-03-29T13:06:14;1.43;;;0.90;;
5923;SDS011;2987;50.884;14.818;2024-03-29T13:08:40;2.10;;;0.97;;
5923;SDS011;2987;50.884;14.818;2024-03-29T13:11:06;1.30;;;0.80;;
5923;SDS011;2987;50.884;14.818;2024-03-29T13:13:32;2.40;;;1.10;;
5923;SDS011;2987;50.884;14.818;2024-03-29T13:15:58;2.67;;;0.90;;
5923;SDS011;2987;50.884;14.818;2024-03-29T13:18:25;5.13;;;1.10;;
5923;SDS011;2987;50.884;14.818;2024-03-29T13:20:51;1.57;;;0.97;;
5923;SDS011;2987;50.884;14.818;2024-03-29T13:23:17;1.97;;;1.00;;
5923;SDS011;2987;50.884;14.818;2024-03-29T13:25:43;1.07;;;0.90;;
5923;SDS011;2987;50.884;14.818;2024-03-29T13:28:09;1.63;;;1.00;;
5923;SDS011;2987;50.884;14.818;2024-03-29T13:30:36;1.50;;;0.90;;
5923;SDS011;2987;50.884;14.818;2024-03-29T13:33:08;2.57;;;1.00;;
5923;SDS011;2987;50.884;14.818;2024-03-29T13:35:35;1.00;;;1.00;;
5923;SDS011;2987;50.884;14.818;2024-03-29T13:38:02;1.10;;;1.00;;
5923;SDS011;2987;50.884;14.818;2024-03-29T13:40:29;1.60;;;0.97;;
5923;SDS011;2987;50.884;14.818;2024-03-29T13:42:57;1.37;;;1.00;;
5923;SDS011;2987;50.884;14.818;2024-03-29T13:45:23;3.70;;;0.83;;
5923;SDS011;2987;50.884;14.818;2024-03-29T13:47:52;2.00;;;0.90;;
5923;SDS011;2987;50.884;14.818;2024-03-29T13:50:18;1.87;;;0.90;;
5923;SDS011;2987;50.884;14.818;2024-03-29T13:52:44;1.40;;;1.00;;
5923;SDS011;2987;50.884;14.818;2024-03-29T13:55:10;1.07;;;0.90;;
5923;SDS011;2987;50.884;14.818;2024-03-29T13:57:37;1.20;;;1.10;;
5923;SDS011;2987;50.884;14.818;2024-03-29T14:00:03;1.30;;;1.00;;
5923;SDS011;2987;50.884;14.818;2024-03-29T14:02:32;3.97;;;1.20;;
5923;SDS011;2987;50.884;14.818;2024-03-29T14:04:58;2.00;;;1.37;;
5923;SDS011;2987;50.884;14.818;2024-03-29T14:07:24;1.63;;;1.00;;
5923;SDS011;2987;50.884;14.818;2024-03-29T14:09:50;1.33;;;1.20;;
5923;SDS011;2987;50.884;14.818;2024-03-29T14:12:17;1.00;;;0.90;;
5923;SDS011;2987;50.884;14.818;2024-03-29T14:14:46;1.20;;;1.00;;
5923;SDS011;2987;50.884;14.818;2024-03-29T14:17:16;2.20;;;1.10;;
5923;SDS011;2987;50.884;14.818;2024-03-29T14:19:42;1.30;;;1.20;;
5923;SDS011;2987;50.884;14.818;2024-03-29T14:22:09;0.90;;;0.90;;
5923;SDS011;2987;50.884;14.818;2024-03-29T14:24:37;0.90;;;0.90;;
5923;SDS011;2987;50.884;14.818;2024-03-29T14:27:05;1.10;;;1.00;;
5923;SDS011;2987;50.884;14.818;2024-03-29T14:29:34;1.73;;;1.10;;
5923;SDS011;2987;50.884;14.818;2024-03-29T14:32:00;2.40;;;1.40;;
5923;SDS011;2987;50.884;14.818;2024-03-29T14:34:28;1.17;;;1.07;;
5923;SDS011;2987;50.884;14.818;2024-03-29T14:37:00;4.67;;;1.20;;
5923;SDS011;2987;50.884;14.818;2024-03-29T14:39:26;1.20;;;1.10;;
5923;SDS011;2987;50.884;14.818;2024-03-29T14:41:53;1.00;;;1.00;;
5923;SDS011;2987;50.884;14.818;2024-03-29T14:44:20;1.60;;;0.90;;
5923;SDS011;2987;50.884;14.818;2024-03-29T14:46:47;1.97;;;1.10;;
5923;SDS011;2987;50.884;14.818;2024-03-29T14:49:13;2.63;;;0.90;;
5923;SDS011;2987;50.884;14.818;2024-03-29T14:51:39;2.23;;;1.10;;
5923;SDS011;2987;50.884;14.818;2024-03-29T14:54:06;2.17;;;1.20;;
5923;SDS011;2987;50.884;14.818;2024-03-29T14:56:32;2.37;;;1.30;;
5923;SDS011;2987;50.884;14.818;2024-03-29T14:59:00;5.87;;;1.63;;
5923;SDS011;2987;50.884;14.818;2024-03-29T15:01:28;1.97;;;1.60;;
5923;SDS011;2987;50.884;14.818;2024-03-29T15:03:54;5.20;;;3.10;;
5923;SDS011;2987;50.884;14.818;2024-03-29T15:06:21;1.60;;;1.10;;